createdAt,value
2017-08-01T00:00:53.011Z,3.83
2017-08-01T00:03:20.553Z,4.07
2017-08-01T00:05:48.078Z,4.40
2017-08-01T00:08:15.619Z,4.80
2017-08-01T00:10:43.140Z,4.30
2017-08-01T00:13:10.679Z,4.50
2017-08-01T00:15:38.199Z,4.30
2017-08-01T00:18:05.749Z,4.00
2017-08-01T00:20:33.277Z,5.20
2017-08-01T00:23:00.826Z,4.33
2017-08-01T00:25:28.351Z,4.87
2017-08-01T00:27:55.877Z,4.30
2017-08-01T00:30:24.182Z,4.27
2017-08-01T00:32:51.713Z,3.77
2017-08-01T00:35:19.255Z,3.83
2017-08-01T00:37:47.543Z,4.27
2017-08-01T00:40:15.845Z,4.97
2017-08-01T00:42:43.367Z,4.90
2017-08-01T00:45:11.673Z,4.03
2017-08-01T00:47:39.196Z,4.10
2017-08-01T00:50:06.743Z,4.73
2017-08-01T00:52:34.268Z,4.50
2017-08-01T00:55:01.802Z,4.10
2017-08-01T00:57:29.326Z,3.97
2017-08-01T00:59:56.872Z,4.27
2017-08-01T01:02:24.404Z,4.30
2017-08-01T01:04:51.928Z,4.23
2017-08-01T01:07:19.478Z,4.67
2017-08-01T01:09:47.764Z,4.10
2017-08-01T01:12:15.302Z,3.80
2017-08-01T01:14:43.583Z,5.30
2017-08-01T01:17:11.891Z,4.20
2017-08-01T01:19:39.412Z,4.30
2017-08-01T01:22:06.956Z,3.73
2017-08-01T01:24:34.483Z,4.33
2017-08-01T01:27:02.022Z,3.87
2017-08-01T01:29:29.543Z,3.23
2017-08-01T01:31:57.099Z,3.47
2017-08-01T01:34:24.615Z,3.70
2017-08-01T01:36:52.130Z,4.80
2017-08-01T01:39:19.677Z,4.40
2017-08-01T01:41:47.196Z,3.57
2017-08-01T01:44:14.738Z,3.47
2017-08-01T01:46:42.249Z,4.70
2017-08-01T01:49:09.782Z,3.40
2017-08-01T01:51:37.303Z,3.57
2017-08-01T01:54:05.610Z,4.47
2017-08-01T01:56:33.122Z,3.73
2017-08-01T01:59:00.667Z,3.73
2017-08-01T02:01:28.186Z,4.50
2017-08-01T02:03:55.745Z,3.57
2017-08-01T02:06:23.267Z,4.03
2017-08-01T02:08:50.786Z,4.57
2017-08-01T02:11:19.103Z,3.23
2017-08-01T02:13:46.619Z,5.20
2017-08-01T02:16:14.163Z,4.37
2017-08-01T02:18:41.679Z,4.93
2017-08-01T02:21:09.219Z,5.00
2017-08-01T02:23:36.738Z,6.30
2017-08-01T02:26:04.280Z,5.20
2017-08-01T02:28:31.807Z,6.77
2017-08-01T02:31:00.110Z,4.70
2017-08-01T02:33:27.630Z,5.40
2017-08-01T02:35:55.178Z,5.33
2017-08-01T02:38:22.695Z,3.73
2017-08-01T02:40:50.211Z,2.20
2017-08-01T02:43:17.754Z,2.30
2017-08-01T02:45:45.274Z,2.43
2017-08-01T02:48:12.811Z,2.20
2017-08-01T02:50:40.344Z,1.70
2017-08-01T02:53:07.891Z,1.53
2017-08-01T02:55:35.417Z,1.47
2017-08-01T02:58:03.723Z,1.73
2017-08-01T03:00:31.247Z,1.40
2017-08-01T03:02:58.787Z,1.50
2017-08-01T03:05:26.303Z,1.50
2017-08-01T03:07:53.863Z,1.10
2017-08-01T03:10:21.383Z,1.20
2017-08-01T03:12:48.897Z,1.10
2017-08-01T03:15:16.462Z,1.40
2017-08-01T03:17:43.977Z,1.10
2017-08-01T03:20:11.519Z,1.30
2017-08-01T03:22:39.811Z,1.27
2017-08-01T03:25:07.346Z,1.50
2017-08-01T03:27:34.872Z,1.90
2017-08-01T03:30:02.416Z,1.50
2017-08-01T03:32:29.938Z,1.70
2017-08-01T03:34:57.487Z,1.47
2017-08-01T03:37:25.780Z,1.10
2017-08-01T03:39:53.306Z,1.47
2017-08-01T03:42:20.842Z,1.30
2017-08-01T03:44:49.140Z,1.17
2017-08-01T03:47:17.443Z,1.57
2017-08-01T03:49:44.958Z,1.30
2017-08-01T03:54:44.809Z,1.30
2017-08-01T03:57:12.351Z,1.30
2017-08-01T03:59:39.873Z,1.33
2017-08-01T04:02:07.390Z,1.67
2017-08-01T04:04:34.925Z,1.30
2017-08-01T04:07:02.449Z,1.40
2017-08-01T04:09:29.991Z,2.23
2017-08-01T04:11:57.506Z,1.43
2017-08-01T04:14:25.043Z,1.17
2017-08-01T04:16:52.565Z,2.07
2017-08-01T04:19:20.105Z,1.27
2017-08-01T04:21:47.626Z,1.37
2017-08-01T04:24:15.164Z,1.90
2017-08-01T04:26:43.454Z,1.80
2017-08-01T04:29:11.000Z,1.50
2017-08-01T04:31:38.520Z,1.40
2017-08-01T04:34:06.038Z,1.00
2017-08-01T04:36:33.577Z,1.20
2017-08-01T04:39:01.869Z,1.33
2017-08-01T04:41:30.180Z,1.20
2017-08-01T04:43:57.694Z,1.53
2017-08-01T04:46:25.228Z,1.33
2017-08-01T04:48:52.751Z,1.30
2017-08-01T04:51:20.288Z,1.43
2017-08-01T04:53:47.803Z,1.20
2017-08-01T04:56:15.346Z,1.73
2017-08-01T04:58:42.866Z,1.60
2017-08-01T05:01:11.153Z,1.60
2017-08-01T05:03:38.686Z,2.57
2017-08-01T05:06:06.206Z,1.80
2017-08-01T05:08:33.746Z,1.63
2017-08-01T05:11:02.025Z,2.00
2017-08-01T05:13:30.326Z,1.90
2017-08-01T05:15:58.610Z,1.40
2017-08-01T05:18:26.141Z,1.40
2017-08-01T05:20:54.427Z,1.47
2017-08-01T05:23:22.737Z,1.70
2017-08-01T05:25:50.254Z,1.87
2017-08-01T05:28:17.793Z,2.00
2017-08-01T05:30:45.315Z,1.43
2017-08-01T05:33:12.842Z,1.50
2017-08-01T05:35:40.432Z,1.60
2017-08-01T05:38:07.970Z,1.83
2017-08-01T05:40:35.510Z,1.87
2017-08-01T05:43:03.027Z,1.67
2017-08-01T05:45:30.570Z,1.70
2017-08-01T05:47:58.850Z,2.07
2017-08-01T05:50:26.390Z,1.90
2017-08-01T05:52:53.912Z,2.10
2017-08-01T05:55:21.445Z,1.63
2017-08-01T05:57:48.975Z,1.70
2017-08-01T06:00:16.493Z,1.93
2017-08-01T06:02:44.031Z,1.97
2017-08-01T06:05:11.549Z,2.33
2017-08-01T06:07:39.086Z,2.00
2017-08-01T06:10:07.368Z,2.57
2017-08-01T06:12:34.906Z,1.90
2017-08-01T06:15:02.422Z,2.20
2017-08-01T06:17:29.957Z,1.87
2017-08-01T06:19:58.242Z,1.70
2017-08-01T06:22:26.360Z,2.00
2017-08-01T06:24:53.873Z,1.90
2017-08-01T06:27:21.390Z,2.17
2017-08-01T06:29:48.923Z,1.70
2017-08-01T06:32:16.443Z,2.40
2017-08-01T06:34:43.978Z,1.90
2017-08-01T06:37:11.498Z,2.17
2017-08-01T06:39:39.035Z,2.60
2017-08-01T06:42:06.557Z,1.30
2017-08-01T06:44:34.090Z,2.00
2017-08-01T06:47:01.602Z,1.90
2017-08-01T06:49:29.146Z,1.30
2017-08-01T06:51:56.668Z,2.10
2017-08-01T06:54:24.190Z,1.53
2017-08-01T06:56:51.740Z,2.10
2017-08-01T06:59:19.260Z,1.60
2017-08-01T07:01:46.791Z,1.67
2017-08-01T07:04:14.306Z,1.77
2017-08-01T07:06:41.838Z,1.97
2017-08-01T07:09:09.359Z,1.40
2017-08-01T07:11:36.894Z,1.60
2017-08-01T07:14:04.414Z,1.90
2017-08-01T07:16:32.738Z,2.00
2017-08-01T07:19:01.028Z,1.83
2017-08-01T07:21:30.162Z,1.80
2017-08-01T07:23:57.702Z,1.73
2017-08-01T07:26:25.222Z,1.70
2017-08-01T07:28:52.761Z,2.00
2017-08-01T07:31:20.285Z,2.60
2017-08-01T07:33:47.822Z,1.77
2017-08-01T07:36:15.342Z,1.50
2017-08-01T07:38:42.874Z,2.40
2017-08-01T07:41:10.390Z,2.27
2017-08-01T07:43:37.962Z,1.90
2017-08-01T07:46:05.480Z,1.83
2017-08-01T07:48:33.002Z,1.83
2017-08-01T07:51:01.302Z,2.10
2017-08-01T07:53:28.818Z,1.80
2017-08-01T07:55:56.350Z,1.80
2017-08-01T07:58:23.872Z,1.80
2017-08-01T08:00:51.419Z,2.03
2017-08-01T08:03:18.941Z,2.03
2017-08-01T08:05:46.475Z,2.30
2017-08-01T08:08:14.000Z,1.80
2017-08-01T08:10:41.560Z,2.17
2017-08-01T08:13:09.078Z,2.13
2017-08-01T08:15:36.594Z,1.87
2017-08-01T08:18:04.141Z,2.03
2017-08-01T08:20:31.666Z,2.00
2017-08-01T08:22:59.202Z,2.10
2017-08-01T08:25:26.730Z,1.97
2017-08-01T08:27:54.267Z,2.47
2017-08-01T08:30:21.782Z,2.73
2017-08-01T08:32:49.322Z,2.43
2017-08-01T08:35:16.844Z,1.90
2017-08-01T08:37:44.389Z,2.10
2017-08-01T08:40:11.916Z,2.13
2017-08-01T08:42:40.198Z,1.87
2017-08-01T08:45:07.743Z,2.50
2017-08-01T08:47:35.261Z,2.40
2017-08-01T08:50:02.797Z,2.10
2017-08-01T08:52:30.314Z,2.07
2017-08-01T08:54:58.627Z,1.80
2017-08-01T08:57:26.147Z,2.20
2017-08-01T08:59:53.698Z,1.70
2017-08-01T09:02:21.218Z,1.67
2017-08-01T09:04:48.738Z,1.80
2017-08-01T09:07:16.279Z,1.80
2017-08-01T09:09:43.797Z,2.43
2017-08-01T09:12:11.346Z,2.10
2017-08-01T09:14:38.875Z,2.30
2017-08-01T09:17:06.417Z,1.97
2017-08-01T09:19:33.931Z,1.57
2017-08-01T09:22:01.472Z,2.07
2017-08-01T09:24:28.989Z,2.23
2017-08-01T09:26:57.313Z,1.93
2017-08-01T09:29:24.834Z,2.27
2017-08-01T09:31:52.355Z,2.30
2017-08-01T09:34:19.895Z,1.93
2017-08-01T09:36:47.419Z,2.10
2017-08-01T09:39:14.957Z,2.10
2017-08-01T09:41:42.474Z,1.73
2017-08-01T09:44:10.014Z,1.90
2017-08-01T09:46:37.533Z,2.63
2017-08-01T09:49:05.070Z,2.73
2017-08-01T09:51:32.587Z,2.70
2017-08-01T09:54:00.122Z,1.90
2017-08-01T09:56:27.638Z,2.73
2017-08-01T09:58:55.177Z,2.80
2017-08-01T10:01:22.694Z,2.17
2017-08-01T10:03:50.208Z,2.67
2017-08-01T10:06:17.743Z,2.63
2017-08-01T10:08:46.036Z,1.87
2017-08-01T10:11:13.572Z,2.07
2017-08-01T10:13:41.085Z,2.03
2017-08-01T10:16:08.677Z,2.03
2017-08-01T10:18:36.973Z,1.80
2017-08-01T10:21:04.510Z,2.20
2017-08-01T10:23:32.022Z,1.93
2017-08-01T10:25:59.558Z,2.00
2017-08-01T10:28:27.071Z,2.47
2017-08-01T10:30:54.626Z,2.60
2017-08-01T10:33:22.147Z,1.70
2017-08-01T10:35:50.442Z,2.33
2017-08-01T10:38:17.994Z,1.90
2017-08-01T10:40:45.509Z,1.83
2017-08-01T10:43:13.041Z,2.50
2017-08-01T10:45:41.328Z,1.73
2017-08-01T10:48:08.870Z,2.90
2017-08-01T10:50:36.403Z,2.03
2017-08-01T10:53:04.718Z,1.87
2017-08-01T10:55:32.238Z,2.00
2017-08-01T10:57:59.775Z,2.13
2017-08-01T11:00:27.291Z,2.50
2017-08-01T11:02:54.822Z,1.73
2017-08-01T11:05:23.111Z,2.00
2017-08-01T11:07:50.676Z,2.00
2017-08-01T11:10:18.957Z,2.30
2017-08-01T11:12:46.474Z,2.20
2017-08-01T11:15:14.007Z,2.30
2017-08-01T11:17:41.523Z,1.50
2017-08-01T11:20:09.063Z,2.47
2017-08-01T11:22:36.588Z,2.50
2017-08-01T11:25:04.126Z,1.80
2017-08-01T11:27:31.638Z,1.67
2017-08-01T11:29:59.942Z,2.00
2017-08-01T11:32:27.467Z,2.30
2017-08-01T11:34:55.014Z,2.10
2017-08-01T11:37:22.540Z,2.47
2017-08-01T11:39:50.089Z,1.80
2017-08-01T11:42:18.371Z,1.77
2017-08-01T11:44:46.663Z,1.80
2017-08-01T11:47:14.970Z,2.23
2017-08-01T11:49:42.490Z,3.10
2017-08-01T11:52:10.031Z,2.00
2017-08-01T11:54:37.550Z,2.30
2017-08-01T11:57:05.091Z,2.33
2017-08-01T11:59:32.609Z,2.20
2017-08-01T12:02:00.152Z,2.47
2017-08-01T12:04:27.673Z,2.13
2017-08-01T12:06:55.209Z,2.23
2017-08-01T12:09:22.735Z,2.47
2017-08-01T12:11:50.266Z,2.53
2017-08-01T12:14:17.788Z,2.20
2017-08-01T12:16:46.096Z,2.57
2017-08-01T12:19:13.626Z,2.50
2017-08-01T12:21:41.150Z,2.47
2017-08-01T12:24:08.694Z,2.60
2017-08-01T12:26:36.210Z,1.97
2017-08-01T12:29:04.513Z,2.33
2017-08-01T12:31:32.030Z,2.30
2017-08-01T12:33:59.575Z,2.73
2017-08-01T12:36:27.095Z,2.07
2017-08-01T12:38:55.399Z,2.10
2017-08-01T12:41:22.918Z,2.50
2017-08-01T12:43:50.471Z,2.40
2017-08-01T12:46:17.994Z,2.43
2017-08-01T12:48:46.286Z,2.47
2017-08-01T12:51:13.822Z,2.10
2017-08-01T12:53:41.334Z,2.53
2017-08-01T12:56:08.876Z,2.13
2017-08-01T12:58:36.399Z,3.07
2017-08-01T13:01:03.934Z,2.67
2017-08-01T13:03:32.218Z,2.50
2017-08-01T13:05:59.758Z,2.20
2017-08-01T13:08:27.286Z,1.90
2017-08-01T13:10:54.829Z,2.37
2017-08-01T13:13:22.351Z,2.30
2017-08-01T13:15:49.881Z,2.57
2017-08-01T13:18:17.418Z,2.90
2017-08-01T13:20:44.934Z,3.00
2017-08-01T13:23:12.468Z,2.27
2017-08-01T13:25:39.990Z,2.23
2017-08-01T13:28:07.531Z,2.40
2017-08-01T13:30:35.053Z,2.00
2017-08-01T13:33:02.598Z,1.90
2017-08-01T13:35:30.115Z,2.40
2017-08-01T13:37:58.423Z,2.70
2017-08-01T13:40:25.951Z,2.60
2017-08-01T13:42:53.500Z,2.77
2017-08-01T13:45:21.028Z,2.40
2017-08-01T13:47:49.311Z,2.70
2017-08-01T13:50:17.615Z,2.77
2017-08-01T13:52:45.138Z,8.30
2017-08-01T13:55:13.443Z,2.63
2017-08-01T13:57:40.961Z,2.20
2017-08-01T14:00:08.498Z,3.17
2017-08-01T14:02:36.023Z,2.43
2017-08-01T14:05:03.558Z,2.50
2017-08-01T14:07:31.080Z,2.30
2017-08-01T14:09:59.382Z,2.50
2017-08-01T14:12:26.915Z,2.87
2017-08-01T14:14:54.459Z,2.20
2017-08-01T14:17:21.974Z,2.50
2017-08-01T14:19:50.261Z,3.00
2017-08-01T14:22:17.802Z,2.60
2017-08-01T14:24:45.318Z,2.70
2017-08-01T14:27:12.859Z,2.83
2017-08-01T14:29:40.379Z,2.40
2017-08-01T14:32:07.918Z,2.33
2017-08-01T14:34:35.433Z,1.90
2017-08-01T14:37:03.735Z,2.50
2017-08-01T14:39:31.249Z,2.20
2017-08-01T14:41:58.789Z,2.70
2017-08-01T14:44:26.307Z,2.60
2017-08-01T14:46:53.823Z,2.67
2017-08-01T14:49:21.362Z,2.10
2017-08-01T14:51:49.642Z,2.10
2017-08-01T14:54:17.945Z,1.93
2017-08-01T14:56:45.462Z,2.43
2017-08-01T14:59:13.006Z,1.60
2017-08-01T15:01:40.530Z,2.03
2017-08-01T15:04:08.067Z,1.60
2017-08-01T15:06:35.590Z,1.70
2017-08-01T15:09:03.141Z,2.90
2017-08-01T15:11:30.664Z,2.20
2017-08-01T15:13:58.183Z,2.00
2017-08-01T15:16:25.727Z,1.80
2017-08-01T15:18:53.247Z,2.40
2017-08-01T15:21:20.789Z,7.00
2017-08-01T15:23:49.074Z,2.20
2017-08-01T15:26:17.378Z,2.33
2017-08-01T15:28:44.893Z,2.17
2017-08-01T15:31:12.436Z,5.00
2017-08-01T15:33:39.954Z,3.83
2017-08-01T15:36:07.490Z,2.30
2017-08-01T15:38:35.015Z,2.90
2017-08-01T15:41:02.556Z,2.93
2017-08-01T15:43:30.069Z,1.80
2017-08-01T15:45:57.629Z,2.80
2017-08-01T15:48:25.146Z,2.60
2017-08-01T15:50:52.671Z,2.73
2017-08-01T15:53:20.210Z,2.20
2017-08-01T15:55:47.730Z,2.70
2017-08-01T15:58:16.034Z,2.53
2017-08-01T16:00:43.556Z,2.43
2017-08-01T16:03:11.100Z,2.20
2017-08-01T16:05:38.618Z,2.23
2017-08-01T16:08:06.152Z,2.67
2017-08-01T16:10:33.671Z,2.57
2017-08-01T16:13:01.210Z,2.60
2017-08-01T16:15:28.728Z,3.20
2017-08-01T16:17:56.271Z,12.17
2017-08-01T16:20:24.558Z,2.47
2017-08-01T16:22:52.110Z,15.20
2017-08-01T16:25:19.627Z,8.17
2017-08-01T16:27:47.906Z,2.50
2017-08-01T16:30:15.450Z,3.17
2017-08-01T16:32:43.735Z,2.87
2017-08-01T16:35:11.280Z,2.33
2017-08-01T16:37:39.570Z,2.20
2017-08-01T16:40:07.868Z,2.60
2017-08-01T16:42:35.398Z,3.20
2017-08-01T16:45:03.711Z,2.80
2017-08-01T16:47:31.230Z,2.30
2017-08-01T16:49:58.765Z,2.80
2017-08-01T16:52:27.056Z,2.53
2017-08-01T16:54:54.600Z,2.37
2017-08-01T16:57:22.884Z,2.63
2017-08-01T16:59:50.418Z,2.33
2017-08-01T17:02:17.935Z,2.37
2017-08-01T17:04:45.476Z,2.97
2017-08-01T17:07:12.994Z,2.90
2017-08-01T17:09:40.510Z,2.70
2017-08-01T17:12:08.046Z,2.50
2017-08-01T17:14:35.564Z,3.17
2017-08-01T17:17:03.097Z,2.73
2017-08-01T17:19:30.618Z,2.70
2017-08-01T17:21:58.159Z,2.57
2017-08-01T17:24:25.683Z,3.50
2017-08-01T17:26:53.222Z,4.03
2017-08-01T17:29:20.741Z,3.50
2017-08-01T17:31:48.286Z,2.63
2017-08-01T17:34:15.802Z,3.20
2017-08-01T17:36:43.343Z,2.80
2017-08-01T17:39:10.861Z,2.63
2017-08-01T17:41:38.382Z,3.20
2017-08-01T17:44:05.914Z,4.13
2017-08-01T17:46:33.435Z,2.77
2017-08-01T17:49:00.974Z,3.13
2017-08-01T17:51:28.499Z,3.07
2017-08-01T17:53:56.038Z,3.47
2017-08-01T17:56:23.553Z,3.70
2017-08-01T17:58:51.090Z,3.20
2017-08-01T18:01:19.374Z,3.30
2017-08-01T18:03:46.918Z,2.97
2017-08-01T18:06:14.442Z,3.63
2017-08-01T18:08:41.982Z,3.23
2017-08-01T18:11:10.262Z,3.70
2017-08-01T18:13:37.781Z,3.73
2017-08-01T18:16:05.320Z,3.60
2017-08-01T18:18:32.841Z,3.77
2017-08-01T18:21:00.377Z,3.00
2017-08-01T18:23:27.893Z,3.40
2017-08-01T18:25:55.428Z,3.10
2017-08-01T18:28:22.942Z,3.20
2017-08-01T18:30:50.486Z,3.73
2017-08-01T18:33:17.998Z,4.40
2017-08-01T18:35:45.539Z,4.33
2017-08-01T18:38:13.822Z,4.33
2017-08-01T18:40:41.365Z,3.30
2017-08-01T18:43:08.882Z,3.40
2017-08-01T18:45:37.195Z,3.13
2017-08-01T18:48:04.714Z,3.47
2017-08-01T18:50:32.235Z,4.20
2017-08-01T18:53:00.544Z,3.60
2017-08-01T18:55:28.059Z,3.60
2017-08-01T18:57:55.595Z,3.73
2017-08-01T19:00:23.118Z,4.40
2017-08-01T19:02:50.655Z,4.47
2017-08-01T19:05:18.945Z,4.30
2017-08-01T19:07:46.490Z,3.90
2017-08-01T19:10:14.009Z,3.90
2017-08-01T19:12:41.545Z,3.87
2017-08-01T19:15:09.064Z,4.13
2017-08-01T19:17:37.366Z,3.97
2017-08-01T19:20:04.952Z,4.00
2017-08-01T19:22:32.472Z,3.57
2017-08-01T19:25:00.019Z,3.40
2017-08-01T19:27:27.609Z,3.90
2017-08-01T19:29:55.143Z,3.87
2017-08-01T19:32:22.670Z,3.67
2017-08-01T19:34:50.202Z,3.97
2017-08-01T19:37:17.727Z,3.53
2017-08-01T19:39:45.267Z,3.57
2017-08-01T19:42:12.786Z,4.30
2017-08-01T19:44:40.362Z,4.13
2017-08-01T19:47:07.881Z,3.70
2017-08-01T19:49:35.395Z,4.50
2017-08-01T19:52:03.701Z,4.43
2017-08-01T19:54:31.227Z,5.03
2017-08-01T19:56:59.531Z,3.50
2017-08-01T19:59:27.115Z,4.63
2017-08-01T20:01:54.711Z,4.50
2017-08-01T20:04:23.005Z,4.53
2017-08-01T20:06:50.542Z,3.97
2017-08-01T20:09:18.063Z,4.90
2017-08-01T20:11:45.608Z,4.20
2017-08-01T20:14:13.137Z,3.90
2017-08-01T20:16:41.440Z,3.67
2017-08-01T20:19:09.729Z,4.73
2017-08-01T20:21:37.280Z,4.20
2017-08-01T20:24:04.797Z,3.90
2017-08-01T20:26:32.317Z,3.77
2017-08-01T20:28:59.858Z,3.80
2017-08-01T20:31:27.463Z,3.27
2017-08-01T20:33:54.998Z,3.43
2017-08-01T20:36:22.557Z,4.30
2017-08-01T20:38:50.094Z,3.60
2017-08-01T20:41:17.616Z,3.93
2017-08-01T20:43:45.162Z,3.70
2017-08-01T20:46:12.688Z,4.07
2017-08-01T20:48:40.217Z,3.50
2017-08-01T20:51:07.797Z,5.17
2017-08-01T20:53:35.358Z,3.90
2017-08-01T20:56:02.886Z,4.37
2017-08-01T20:58:30.406Z,4.13
2017-08-01T21:00:57.942Z,4.63
2017-08-01T21:03:25.463Z,4.07
2017-08-01T21:05:53.012Z,4.10
2017-08-01T21:08:20.530Z,3.40
2017-08-01T21:10:48.083Z,3.90
2017-08-01T21:13:15.611Z,4.00
2017-08-01T21:15:43.147Z,4.10
2017-08-01T21:18:11.443Z,3.70
2017-08-01T21:20:38.991Z,4.50
2017-08-01T21:23:07.269Z,4.60
2017-08-01T21:25:35.594Z,3.60
2017-08-01T21:28:03.116Z,3.87
2017-08-01T21:30:30.634Z,4.20
2017-08-01T21:32:58.175Z,4.10
2017-08-01T21:35:26.457Z,3.60
2017-08-01T21:37:53.995Z,3.17
2017-08-01T21:40:21.516Z,3.20
2017-08-01T21:42:49.054Z,3.37
2017-08-01T21:45:16.573Z,3.07
2017-08-01T21:47:44.877Z,4.00
2017-08-01T21:50:12.394Z,4.27
2017-08-01T21:52:40.698Z,4.50
2017-08-01T21:55:08.224Z,4.27
2017-08-01T21:57:35.759Z,4.00
2017-08-01T22:00:03.274Z,4.33
2017-08-01T22:02:30.814Z,5.17
2017-08-01T22:04:58.339Z,4.00
2017-08-01T22:07:25.885Z,4.70
2017-08-01T22:09:53.407Z,4.00
2017-08-01T22:12:20.927Z,3.00
2017-08-01T22:14:48.467Z,4.03
2017-08-01T22:17:15.991Z,4.20
2017-08-01T22:19:43.530Z,3.97
2017-08-01T22:22:11.058Z,6.43
2017-08-01T22:24:38.605Z,5.33
2017-08-01T22:27:06.125Z,4.07
2017-08-01T22:29:33.662Z,3.80
2017-08-01T22:32:01.184Z,4.53
2017-08-01T22:34:28.727Z,4.50
2017-08-01T22:36:56.244Z,3.80
2017-08-01T22:39:23.772Z,4.90
2017-08-01T22:41:51.312Z,3.33
2017-08-01T22:44:19.612Z,3.33
2017-08-01T22:46:47.158Z,3.50
2017-08-01T22:49:14.679Z,3.30
2017-08-01T22:51:42.229Z,3.37
2017-08-01T22:54:09.754Z,2.90
2017-08-01T22:56:37.302Z,4.43
2017-08-01T22:59:04.819Z,3.80
2017-08-01T23:01:33.121Z,4.33
2017-08-01T23:04:00.647Z,3.67
2017-08-01T23:06:28.190Z,3.97
2017-08-01T23:08:55.711Z,3.73
2017-08-01T23:11:23.231Z,4.83
2017-08-01T23:13:51.538Z,4.07
2017-08-01T23:16:19.054Z,4.87
2017-08-01T23:18:46.590Z,5.40
2017-08-01T23:21:14.119Z,5.00
2017-08-01T23:23:41.671Z,5.67
2017-08-01T23:26:09.968Z,4.90
2017-08-01T23:28:38.263Z,4.70
2017-08-01T23:31:05.780Z,4.60
2017-08-01T23:33:33.328Z,5.73
2017-08-01T23:36:00.848Z,5.50
2017-08-01T23:38:28.371Z,5.03
2017-08-01T23:40:55.916Z,5.00
2017-08-01T23:43:23.431Z,4.20
2017-08-01T23:45:50.975Z,4.70
2017-08-01T23:48:18.502Z,4.50
2017-08-01T23:50:46.806Z,4.67
2017-08-01T23:53:14.326Z,5.97
2017-08-01T23:55:42.628Z,4.60
2017-08-01T23:58:10.147Z,4.80
